sensor_id;sensor_type;location;lat;lon;timestamp;pressure;altitude;pressure_sealevel;temperature;humidity
77288;BME280;66345;42.694;23.346;2023-07-09T00:01:49;95895.94;;;19.67;51.96
77288;BME280;66345;42.694;23.346;2023-07-09T00:04:15;95890.69;;;19.61;52.05
77288;BME280;66345;42.694;23.346;2023-07-09T00:06:41;95900.59;;;19.72;51.76
77288;BME280;66345;42.694;23.346;2023-07-09T00:09:15;95891.72;;;19.72;51.85
77288;BME280;66345;42.694;23.346;2023-07-09T00:11:42;95881.19;;;19.70;51.71
77288;BME280;66345;42.694;23.346;2023-07-09T00:14:09;95886.94;;;19.74;51.74
77288;BME280;66345;42.694;23.346;2023-07-09T00:16:35;95886.22;;;19.66;51.56
77288;BME280;66345;42.694;23.346;2023-07-09T00:19:03;95882.34;;;19.62;51.96
77288;BME280;66345;42.694;23.346;2023-07-09T00:21:29;95877.22;;;19.61;51.81
77288;BME280;66345;42.694;23.346;2023-07-09T00:24:00;95885.94;;;19.56;51.80
77288;BME280;66345;42.694;23.346;2023-07-09T00:26:30;95886.34;;;19.60;52.21
77288;BME280;66345;42.694;23.346;2023-07-09T00:28:58;95878.84;;;19.50;52.08
77288;BME280;66345;42.694;23.346;2023-07-09T00:31:24;95881.97;;;19.47;52.14
77288;BME280;66345;42.694;23.346;2023-07-09T00:33:49;95880.81;;;19.55;52.30
77288;BME280;66345;42.694;23.346;2023-07-09T00:36:20;95884.44;;;19.49;52.49
77288;BME280;66345;42.694;23.346;2023-07-09T00:38:49;95883.63;;;19.48;52.15
77288;BME280;66345;42.694;23.346;2023-07-09T00:41:22;95877.91;;;19.45;52.32
77288;BME280;66345;42.694;23.346;2023-07-09T00:43:49;95882.56;;;19.49;52.59
77288;BME280;66345;42.694;23.346;2023-07-09T00:48:55;95876.50;;;19.30;53.09
77288;BME280;66345;42.694;23.346;2023-07-09T00:51:24;95871.34;;;19.40;53.23
77288;BME280;66345;42.694;23.346;2023-07-09T00:53:53;95870.63;;;19.45;53.01
77288;BME280;66345;42.694;23.346;2023-07-09T00:56:35;95867.72;;;19.35;52.73
77288;BME280;66345;42.694;23.346;2023-07-09T00:59:06;95864.56;;;19.38;52.63
77288;BME280;66345;42.694;23.346;2023-07-09T01:01:34;95872.16;;;19.41;52.98
77288;BME280;66345;42.694;23.346;2023-07-09T01:04:00;95878.84;;;19.38;53.31
77288;BME280;66345;42.694;23.346;2023-07-09T01:06:36;95872.06;;;19.36;52.95
77288;BME280;66345;42.694;23.346;2023-07-09T01:09:04;95870.50;;;19.40;53.73
77288;BME280;66345;42.694;23.346;2023-07-09T01:11:30;95871.44;;;19.34;53.67
77288;BME280;66345;42.694;23.346;2023-07-09T01:14:00;95874.84;;;19.29;54.12
77288;BME280;66345;42.694;23.346;2023-07-09T01:16:39;95871.34;;;19.29;53.22
77288;BME280;66345;42.694;23.346;2023-07-09T01:19:06;95860.59;;;19.29;53.14
77288;BME280;66345;42.694;23.346;2023-07-09T01:21:31;95855.44;;;19.27;53.02
77288;BME280;66345;42.694;23.346;2023-07-09T01:23:58;95860.13;;;19.20;53.72
77288;BME280;66345;42.694;23.346;2023-07-09T01:26:26;95864.31;;;19.16;53.87
77288;BME280;66345;42.694;23.346;2023-07-09T01:28:56;95860.22;;;19.13;53.87
77288;BME280;66345;42.694;23.346;2023-07-09T01:31:22;95857.41;;;19.08;54.05
77288;BME280;66345;42.694;23.346;2023-07-09T01:33:48;95859.41;;;19.13;54.47
77288;BME280;66345;42.694;23.346;2023-07-09T01:36:20;95857.66;;;19.07;53.70
77288;BME280;66345;42.694;23.346;2023-07-09T01:38:50;95854.47;;;18.98;53.95
77288;BME280;66345;42.694;23.346;2023-07-09T01:41:16;95859.50;;;18.95;54.46
77288;BME280;66345;42.694;23.346;2023-07-09T01:43:43;95854.94;;;18.95;53.70
77288;BME280;66345;42.694;23.346;2023-07-09T01:46:10;95867.31;;;18.96;53.78
77288;BME280;66345;42.694;23.346;2023-07-09T01:48:38;95865.69;;;18.95;53.71
77288;BME280;66345;42.694;23.346;2023-07-09T01:51:11;95870.00;;;18.96;54.93
77288;BME280;66345;42.694;23.346;2023-07-09T01:53:40;95887.06;;;18.78;56.20
77288;BME280;66345;42.694;23.346;2023-07-09T01:56:06;95878.44;;;18.58;57.47
77288;BME280;66345;42.694;23.346;2023-07-09T01:58:35;95883.81;;;18.58;57.59
77288;BME280;66345;42.694;23.346;2023-07-09T02:01:01;95884.75;;;18.52;58.52
77288;BME280;66345;42.694;23.346;2023-07-09T02:03:27;95882.00;;;18.40;58.82
77288;BME280;66345;42.694;23.346;2023-07-09T02:05:53;95880.31;;;18.27;59.58
77288;BME280;66345;42.694;23.346;2023-07-09T02:08:19;95888.44;;;18.21;60.07
77288;BME280;66345;42.694;23.346;2023-07-09T02:10:48;95891.16;;;18.02;60.69
77288;BME280;66345;42.694;23.346;2023-07-09T02:13:13;95882.88;;;18.04;60.85
77288;BME280;66345;42.694;23.346;2023-07-09T02:15:39;95881.47;;;18.01;60.43
77288;BME280;66345;42.694;23.346;2023-07-09T02:18:09;95885.06;;;17.95;61.08
77288;BME280;66345;42.694;23.346;2023-07-09T02:20:34;95887.97;;;17.94;61.09
77288;BME280;66345;42.694;23.346;2023-07-09T02:23:00;95883.44;;;17.76;61.69
77288;BME280;66345;42.694;23.346;2023-07-09T02:25:25;95888.81;;;17.76;61.94
77288;BME280;66345;42.694;23.346;2023-07-09T02:27:51;95888.69;;;17.64;62.17
77288;BME280;66345;42.694;23.346;2023-07-09T02:30:16;95892.56;;;17.68;62.19
77288;BME280;66345;42.694;23.346;2023-07-09T02:32:42;95902.31;;;17.63;62.22
77288;BME280;66345;42.694;23.346;2023-07-09T02:35:07;95897.44;;;17.53;62.38
77288;BME280;66345;42.694;23.346;2023-07-09T02:37:33;95899.59;;;17.44;62.35
77288;BME280;66345;42.694;23.346;2023-07-09T02:39:58;95901.47;;;17.44;62.72
77288;BME280;66345;42.694;23.346;2023-07-09T02:42:24;95911.41;;;17.18;63.50
77288;BME280;66345;42.694;23.346;2023-07-09T02:44:50;95908.38;;;17.33;62.98
77288;BME280;66345;42.694;23.346;2023-07-09T02:47:16;95919.06;;;17.40;63.18
77288;BME280;66345;42.694;23.346;2023-07-09T02:49:41;95915.69;;;17.26;63.34
77288;BME280;66345;42.694;23.346;2023-07-09T02:52:08;95918.16;;;17.03;64.23
77288;BME280;66345;42.694;23.346;2023-07-09T02:54:33;95921.75;;;17.15;63.88
77288;BME280;66345;42.694;23.346;2023-07-09T02:56:59;95918.19;;;16.96;64.44
77288;BME280;66345;42.694;23.346;2023-07-09T02:59:24;95928.06;;;17.02;64.60
77288;BME280;66345;42.694;23.346;2023-07-09T03:01:51;95933.38;;;17.09;64.40
77288;BME280;66345;42.694;23.346;2023-07-09T03:04:17;95931.97;;;17.00;64.87
77288;BME280;66345;42.694;23.346;2023-07-09T03:06:45;95931.66;;;17.14;64.33
77288;BME280;66345;42.694;23.346;2023-07-09T03:09:10;95937.00;;;17.14;64.35
77288;BME280;66345;42.694;23.346;2023-07-09T03:11:36;95942.66;;;17.06;64.72
77288;BME280;66345;42.694;23.346;2023-07-09T03:14:02;95942.28;;;17.03;64.26
77288;BME280;66345;42.694;23.346;2023-07-09T03:16:28;95939.09;;;17.12;64.21
77288;BME280;66345;42.694;23.346;2023-07-09T03:18:54;95942.94;;;17.23;64.07
77288;BME280;66345;42.694;23.346;2023-07-09T03:21:24;95933.50;;;17.14;64.03
77288;BME280;66345;42.694;23.346;2023-07-09T03:23:50;95939.50;;;17.16;64.09
77288;BME280;66345;42.694;23.346;2023-07-09T03:26:15;95940.50;;;17.15;64.31
77288;BME280;66345;42.694;23.346;2023-07-09T03:28:41;95940.78;;;17.07;64.30
77288;BME280;66345;42.694;23.346;2023-07-09T03:31:07;95936.19;;;16.89;65.13
77288;BME280;66345;42.694;23.346;2023-07-09T03:33:33;95934.84;;;16.73;66.51
77288;BME280;66345;42.694;23.346;2023-07-09T03:35:58;95940.44;;;16.72;66.80
77288;BME280;66345;42.694;23.346;2023-07-09T03:38:24;95943.19;;;16.52;68.16
77288;BME280;66345;42.694;23.346;2023-07-09T03:40:53;95941.22;;;16.34;68.41
77288;BME280;66345;42.694;23.346;2023-07-09T03:43:20;95937.50;;;16.35;68.02
77288;BME280;66345;42.694;23.346;2023-07-09T03:45:46;95938.09;;;16.37;68.54
77288;BME280;66345;42.694;23.346;2023-07-09T03:48:12;95945.59;;;16.60;67.89
77288;BME280;66345;42.694;23.346;2023-07-09T03:50:38;95946.19;;;16.62;68.16
77288;BME280;66345;42.694;23.346;2023-07-09T03:53:03;95943.94;;;16.72;67.95
77288;BME280;66345;42.694;23.346;2023-07-09T03:55:29;95945.31;;;16.81;67.81
77288;BME280;66345;42.694;23.346;2023-07-09T03:57:55;95944.69;;;17.11;66.85
77288;BME280;66345;42.694;23.346;2023-07-09T04:00:20;95948.56;;;17.15;66.21
77288;BME280;66345;42.694;23.346;2023-07-09T04:02:46;95955.47;;;17.29;65.80
77288;BME280;66345;42.694;23.346;2023-07-09T04:05:12;95954.91;;;17.45;65.33
77288;BME280;66345;42.694;23.346;2023-07-09T04:07:37;95953.22;;;17.51;65.03
77288;BME280;66345;42.694;23.346;2023-07-09T04:10:04;95957.69;;;17.57;63.96
77288;BME280;66345;42.694;23.346;2023-07-09T04:12:30;95959.88;;;17.67;63.43
77288;BME280;66345;42.694;23.346;2023-07-09T04:14:55;95961.75;;;17.66;62.55
77288;BME280;66345;42.694;23.346;2023-07-09T04:17:20;95970.69;;;17.85;63.75
77288;BME280;66345;42.694;23.346;2023-07-09T04:19:48;95969.19;;;17.89;64.08
77288;BME280;66345;42.694;23.346;2023-07-09T04:22:13;95967.63;;;18.00;62.41
77288;BME280;66345;42.694;23.346;2023-07-09T04:24:39;95968.22;;;18.20;61.02
77288;BME280;66345;42.694;23.346;2023-07-09T04:27:04;95969.19;;;18.26;60.89
77288;BME280;66345;42.694;23.346;2023-07-09T04:29:30;95976.50;;;18.19;60.13
77288;BME280;66345;42.694;23.346;2023-07-09T04:31:55;95973.22;;;18.17;60.24
77288;BME280;66345;42.694;23.346;2023-07-09T04:34:21;95976.50;;;18.19;60.33
77288;BME280;66345;42.694;23.346;2023-07-09T04:36:47;95983.97;;;18.17;60.27
77288;BME280;66345;42.694;23.346;2023-07-09T04:39:12;95987.25;;;18.19;59.62
77288;BME280;66345;42.694;23.346;2023-07-09T04:41:38;95987.72;;;18.16;60.38
77288;BME280;66345;42.694;23.346;2023-07-09T04:44:03;95985.84;;;18.16;60.85
77288;BME280;66345;42.694;23.346;2023-07-09T04:46:29;95983.44;;;17.90;61.37
77288;BME280;66345;42.694;23.346;2023-07-09T04:48:54;95988.38;;;18.11;61.62
77288;BME280;66345;42.694;23.346;2023-07-09T04:51:20;95978.00;;;18.33;60.84
77288;BME280;66345;42.694;23.346;2023-07-09T04:53:46;95973.47;;;18.64;60.14
77288;BME280;66345;42.694;23.346;2023-07-09T04:56:11;95976.44;;;18.92;59.08
77288;BME280;66345;42.694;23.346;2023-07-09T04:58:38;95967.38;;;19.17;58.03
77288;BME280;66345;42.694;23.346;2023-07-09T05:01:03;95970.91;;;19.29;57.77
77288;BME280;66345;42.694;23.346;2023-07-09T05:03:28;95983.72;;;19.57;57.79
77288;BME280;66345;42.694;23.346;2023-07-09T05:05:54;95973.63;;;20.34;55.81
77288;BME280;66345;42.694;23.346;2023-07-09T05:08:19;95973.44;;;21.88;50.77
77288;BME280;66345;42.694;23.346;2023-07-09T05:10:50;95967.94;;;23.64;46.44
77288;BME280;66345;42.694;23.346;2023-07-09T05:13:16;95973.56;;;23.94;45.03
77288;BME280;66345;42.694;23.346;2023-07-09T05:15:44;95970.41;;;25.58;40.75
77288;BME280;66345;42.694;23.346;2023-07-09T05:18:10;95980.91;;;26.57;39.22
77288;BME280;66345;42.694;23.346;2023-07-09T05:20:36;95972.03;;;27.45;36.78
77288;BME280;66345;42.694;23.346;2023-07-09T05:23:01;95972.69;;;28.53;34.55
77288;BME280;66345;42.694;23.346;2023-07-09T05:25:27;95976.59;;;29.32;32.58
77288;BME280;66345;42.694;23.346;2023-07-09T05:27:52;95979.72;;;29.63;32.15
77288;BME280;66345;42.694;23.346;2023-07-09T05:30:18;95969.84;;;29.81;31.81
77288;BME280;66345;42.694;23.346;2023-07-09T05:32:44;95977.47;;;28.42;34.34
77288;BME280;66345;42.694;23.346;2023-07-09T05:35:10;95970.66;;;29.81;32.13
77288;BME280;66345;42.694;23.346;2023-07-09T05:37:36;95971.50;;;29.07;32.39
77288;BME280;66345;42.694;23.346;2023-07-09T05:40:06;95966.50;;;29.51;32.58
77288;BME280;66345;42.694;23.346;2023-07-09T05:42:33;95962.47;;;29.81;31.41
77288;BME280;66345;42.694;23.346;2023-07-09T05:44:58;95963.34;;;29.77;32.20
77288;BME280;66345;42.694;23.346;2023-07-09T05:47:24;95965.75;;;30.44;30.70
77288;BME280;66345;42.694;23.346;2023-07-09T05:49:50;95965.56;;;29.75;31.48
77288;BME280;66345;42.694;23.346;2023-07-09T05:52:17;95969.16;;;29.56;31.60
77288;BME280;66345;42.694;23.346;2023-07-09T05:54:43;95964.78;;;30.21;30.66
77288;BME280;66345;42.694;23.346;2023-07-09T05:57:10;95964.50;;;30.36;30.57
77288;BME280;66345;42.694;23.346;2023-07-09T05:59:35;95970.81;;;30.04;30.80
77288;BME280;66345;42.694;23.346;2023-07-09T06:02:01;95969.31;;;30.99;28.79
77288;BME280;66345;42.694;23.346;2023-07-09T06:04:26;95960.19;;;32.29;27.38
77288;BME280;66345;42.694;23.346;2023-07-09T06:06:52;95962.19;;;32.15;26.66
77288;BME280;66345;42.694;23.346;2023-07-09T06:09:18;95967.84;;;31.15;29.35
77288;BME280;66345;42.694;23.346;2023-07-09T06:11:44;95959.25;;;32.12;27.97
77288;BME280;66345;42.694;23.346;2023-07-09T06:14:10;95958.75;;;33.29;25.96
77288;BME280;66345;42.694;23.346;2023-07-09T06:16:35;95966.47;;;31.99;28.22
77288;BME280;66345;42.694;23.346;2023-07-09T06:19:02;95953.31;;;31.87;27.41
77288;BME280;66345;42.694;23.346;2023-07-09T06:21:27;95965.59;;;31.67;27.93
77288;BME280;66345;42.694;23.346;2023-07-09T06:23:53;95955.56;;;31.85;28.26
77288;BME280;66345;42.694;23.346;2023-07-09T06:26:18;95964.66;;;31.36;28.44
77288;BME280;66345;42.694;23.346;2023-07-09T06:28:44;95955.50;;;32.30;26.93
77288;BME280;66345;42.694;23.346;2023-07-09T06:31:10;95951.53;;;31.83;27.16
77288;BME280;66345;42.694;23.346;2023-07-09T06:33:35;95948.38;;;32.29;27.66
77288;BME280;66345;42.694;23.346;2023-07-09T06:36:01;95953.06;;;32.28;27.30
77288;BME280;66345;42.694;23.346;2023-07-09T06:38:28;95955.13;;;31.19;28.29
77288;BME280;66345;42.694;23.346;2023-07-09T06:40:54;95954.50;;;32.57;26.64
77288;BME280;66345;42.694;23.346;2023-07-09T06:43:20;95952.03;;;32.87;26.85
77288;BME280;66345;42.694;23.346;2023-07-09T06:45:57;95938.69;;;33.63;25.46
77288;BME280;66345;42.694;23.346;2023-07-09T06:48:24;95950.03;;;33.53;26.11
77288;BME280;66345;42.694;23.346;2023-07-09T06:50:49;95956.97;;;33.76;25.57
77288;BME280;66345;42.694;23.346;2023-07-09T06:53:15;95952.47;;;34.91;23.91
77288;BME280;66345;42.694;23.346;2023-07-09T06:55:41;95947.75;;;33.89;25.42
77288;BME280;66345;42.694;23.346;2023-07-09T06:58:07;95941.31;;;33.51;25.60
77288;BME280;66345;42.694;23.346;2023-07-09T07:00:34;95946.00;;;33.42;25.85
77288;BME280;66345;42.694;23.346;2023-07-09T07:03:01;95948.91;;;33.54;24.64
77288;BME280;66345;42.694;23.346;2023-07-09T07:05:26;95942.50;;;34.22;24.30
77288;BME280;66345;42.694;23.346;2023-07-09T07:07:52;95941.94;;;33.39;26.19
77288;BME280;66345;42.694;23.346;2023-07-09T07:10:18;95949.47;;;34.20;24.25
77288;BME280;66345;42.694;23.346;2023-07-09T07:12:46;95945.00;;;33.37;24.31
77288;BME280;66345;42.694;23.346;2023-07-09T07:15:14;95947.72;;;34.07;24.04
77288;BME280;66345;42.694;23.346;2023-07-09T07:17:41;95938.06;;;34.39;23.86
77288;BME280;66345;42.694;23.346;2023-07-09T07:20:07;95945.50;;;33.74;24.59
77288;BME280;66345;42.694;23.346;2023-07-09T07:22:33;95936.03;;;34.18;23.95
77288;BME280;66345;42.694;23.346;2023-07-09T07:24:59;95934.31;;;33.97;23.75
77288;BME280;66345;42.694;23.346;2023-07-09T07:27:24;95937.94;;;35.03;23.46
77288;BME280;66345;42.694;23.346;2023-07-09T07:29:49;95931.84;;;35.18;22.96
77288;BME280;66345;42.694;23.346;2023-07-09T07:32:15;95938.44;;;35.26;22.06
77288;BME280;66345;42.694;23.346;2023-07-09T07:34:40;95930.66;;;35.70;22.12
77288;BME280;66345;42.694;23.346;2023-07-09T07:37:06;95922.09;;;35.63;21.92
77288;BME280;66345;42.694;23.346;2023-07-09T07:39:31;95921.69;;;36.63;20.36
77288;BME280;66345;42.694;23.346;2023-07-09T07:41:56;95923.03;;;37.99;18.99
77288;BME280;66345;42.694;23.346;2023-07-09T07:44:22;95921.81;;;37.04;19.58
77288;BME280;66345;42.694;23.346;2023-07-09T07:46:48;95923.72;;;37.68;18.98
77288;BME280;66345;42.694;23.346;2023-07-09T07:49:13;95919.63;;;36.97;19.53
77288;BME280;66345;42.694;23.346;2023-07-09T07:51:39;95927.31;;;36.79;20.46
77288;BME280;66345;42.694;23.346;2023-07-09T07:54:05;95922.25;;;36.45;19.95
77288;BME280;66345;42.694;23.346;2023-07-09T07:56:31;95922.38;;;36.48;20.77
77288;BME280;66345;42.694;23.346;2023-07-09T07:58:57;95917.94;;;36.35;21.06
77288;BME280;66345;42.694;23.346;2023-07-09T08:01:22;95919.38;;;36.53;20.45
77288;BME280;66345;42.694;23.346;2023-07-09T08:03:48;95915.72;;;38.07;18.86
77288;BME280;66345;42.694;23.346;2023-07-09T08:06:13;95915.03;;;38.10;18.40
77288;BME280;66345;42.694;23.346;2023-07-09T08:08:39;95913.97;;;36.69;19.33
77288;BME280;66345;42.694;23.346;2023-07-09T08:11:06;95908.06;;;37.60;18.60
77288;BME280;66345;42.694;23.346;2023-07-09T08:13:37;95906.91;;;37.61;18.74
77288;BME280;66345;42.694;23.346;2023-07-09T08:16:03;95908.19;;;38.07;18.75
77288;BME280;66345;42.694;23.346;2023-07-09T08:18:29;95901.28;;;38.45;18.52
77288;BME280;66345;42.694;23.346;2023-07-09T08:20:54;95904.78;;;37.70;18.62
77288;BME280;66345;42.694;23.346;2023-07-09T08:23:20;95908.59;;;39.00;18.08
77288;BME280;66345;42.694;23.346;2023-07-09T08:25:55;95898.19;;;38.02;19.18
77288;BME280;66345;42.694;23.346;2023-07-09T08:28:21;95899.19;;;37.94;18.35
77288;BME280;66345;42.694;23.346;2023-07-09T08:30:46;95898.31;;;37.26;19.02
77288;BME280;66345;42.694;23.346;2023-07-09T08:33:12;95895.44;;;38.18;18.40
77288;BME280;66345;42.694;23.346;2023-07-09T08:35:37;95905.94;;;37.81;19.10
77288;BME280;66345;42.694;23.346;2023-07-09T08:38:03;95898.94;;;37.59;19.23
77288;BME280;66345;42.694;23.346;2023-07-09T08:40:28;95894.56;;;38.46;17.92
77288;BME280;66345;42.694;23.346;2023-07-09T08:43:06;95891.94;;;38.84;17.97
77288;BME280;66345;42.694;23.346;2023-07-09T08:46:07;95898.13;;;38.94;18.27
77288;BME280;66345;42.694;23.346;2023-07-09T08:48:32;95900.88;;;37.31;19.80
77288;BME280;66345;42.694;23.346;2023-07-09T08:51:24;95890.63;;;38.63;18.26
77288;BME280;66345;42.694;23.346;2023-07-09T08:53:56;95891.59;;;36.99;19.82
77288;BME280;66345;42.694;23.346;2023-07-09T08:56:23;95891.72;;;37.83;19.98
77288;BME280;66345;42.694;23.346;2023-07-09T08:58:50;95893.44;;;37.87;19.67
77288;BME280;66345;42.694;23.346;2023-07-09T09:01:27;95884.19;;;38.27;19.58
77288;BME280;66345;42.694;23.346;2023-07-09T09:04:15;95893.53;;;40.14;17.39
77288;BME280;66345;42.694;23.346;2023-07-09T09:06:48;95896.03;;;39.06;19.02
77288;BME280;66345;42.694;23.346;2023-07-09T09:12:25;95895.00;;;39.88;17.18
77288;BME280;66345;42.694;23.346;2023-07-09T09:15:00;95891.28;;;39.07;18.10
77288;BME280;66345;42.694;23.346;2023-07-09T09:17:27;95890.19;;;39.66;17.34
77288;BME280;66345;42.694;23.346;2023-07-09T09:20:02;95890.56;;;38.43;19.35
77288;BME280;66345;42.694;23.346;2023-07-09T09:27:42;95878.25;;;40.27;17.81
77288;BME280;66345;42.694;23.346;2023-07-09T09:30:16;95879.97;;;38.65;18.56
77288;BME280;66345;42.694;23.346;2023-07-09T09:32:44;95881.09;;;39.88;17.86
77288;BME280;66345;42.694;23.346;2023-07-09T09:35:16;95884.22;;;39.64;17.68
77288;BME280;66345;42.694;23.346;2023-07-09T09:37:51;95888.69;;;38.47;19.21
77288;BME280;66345;42.694;23.346;2023-07-09T09:40:18;95868.94;;;39.00;18.26
77288;BME280;66345;42.694;23.346;2023-07-09T09:42:48;95880.41;;;38.67;18.85
77288;BME280;66345;42.694;23.346;2023-07-09T09:45:16;95870.78;;;38.45;18.51
77288;BME280;66345;42.694;23.346;2023-07-09T09:47:45;95877.31;;;37.49;19.24
77288;BME280;66345;42.694;23.346;2023-07-09T09:52:41;95878.78;;;38.97;17.84
77288;BME280;66345;42.694;23.346;2023-07-09T09:55:19;95866.97;;;38.84;18.26
77288;BME280;66345;42.694;23.346;2023-07-09T09:57:50;95869.06;;;39.07;18.48
77288;BME280;66345;42.694;23.346;2023-07-09T10:00:16;95865.09;;;39.82;17.19
77288;BME280;66345;42.694;23.346;2023-07-09T10:02:43;95864.53;;;38.99;18.41
77288;BME280;66345;42.694;23.346;2023-07-09T10:05:21;95857.50;;;38.54;18.39
77288;BME280;66345;42.694;23.346;2023-07-09T10:08:08;95859.75;;;38.17;18.82
77288;BME280;66345;42.694;23.346;2023-07-09T10:10:37;95858.66;;;37.90;19.09
77288;BME280;66345;42.694;23.346;2023-07-09T10:13:41;95846.88;;;37.37;19.09
77288;BME280;66345;42.694;23.346;2023-07-09T10:16:19;95847.50;;;37.58;20.38
77288;BME280;66345;42.694;23.346;2023-07-09T10:18:56;95859.41;;;37.46;19.01
77288;BME280;66345;42.694;23.346;2023-07-09T10:21:34;95850.94;;;37.83;18.81
77288;BME280;66345;42.694;23.346;2023-07-09T10:33:01;95839.53;;;38.16;18.83
77288;BME280;66345;42.694;23.346;2023-07-09T10:35:05;95838.97;;;36.58;19.54
77288;BME280;66345;42.694;23.346;2023-07-09T10:40:35;95850.63;;;33.28;23.89
77288;BME280;66345;42.694;23.346;2023-07-09T10:43:03;95843.44;;;32.58;24.75
77288;BME280;66345;42.694;23.346;2023-07-09T10:45:37;95843.38;;;31.70;26.37
77288;BME280;66345;42.694;23.346;2023-07-09T10:48:14;95840.94;;;30.51;28.08
77288;BME280;66345;42.694;23.346;2023-07-09T10:50:47;95832.81;;;29.91;28.68
77288;BME280;66345;42.694;23.346;2023-07-09T10:53:32;95844.72;;;29.54;29.08
77288;BME280;66345;42.694;23.346;2023-07-09T10:56:17;95846.81;;;28.73;30.62
77288;BME280;66345;42.694;23.346;2023-07-09T11:01:25;95836.81;;;28.82;29.79
77288;BME280;66345;42.694;23.346;2023-07-09T11:04:00;95838.00;;;29.14;29.84
77288;BME280;66345;42.694;23.346;2023-07-09T11:06:35;95831.66;;;28.99;31.53
77288;BME280;66345;42.694;23.346;2023-07-09T11:09:29;95832.91;;;28.88;30.27
77288;BME280;66345;42.694;23.346;2023-07-09T11:11:59;95834.06;;;28.63;30.48
77288;BME280;66345;42.694;23.346;2023-07-09T11:14:37;95834.19;;;28.96;31.33
77288;BME280;66345;42.694;23.346;2023-07-09T11:17:12;95827.81;;;28.82;29.76
77288;BME280;66345;42.694;23.346;2023-07-09T11:19:46;95831.56;;;28.86;30.31
77288;BME280;66345;42.694;23.346;2023-07-09T11:22:39;95832.63;;;28.90;30.72
77288;BME280;66345;42.694;23.346;2023-07-09T11:25:12;95827.22;;;28.85;30.59
77288;BME280;66345;42.694;23.346;2023-07-09T11:28:05;95831.78;;;28.94;29.63
77288;BME280;66345;42.694;23.346;2023-07-09T11:30:31;95825.09;;;29.00;30.71
77288;BME280;66345;42.694;23.346;2023-07-09T11:32:59;95822.22;;;28.73;30.39
77288;BME280;66345;42.694;23.346;2023-07-09T11:35:28;95824.28;;;28.81;30.31
77288;BME280;66345;42.694;23.346;2023-07-09T11:37:54;95825.19;;;28.95;31.87
77288;BME280;66345;42.694;23.346;2023-07-09T11:40:22;95809.50;;;28.82;29.78
77288;BME280;66345;42.694;23.346;2023-07-09T11:45:37;95811.56;;;28.71;30.80
77288;BME280;66345;42.694;23.346;2023-07-09T11:48:23;95815.63;;;28.74;30.38
77288;BME280;66345;42.694;23.346;2023-07-09T11:50:51;95822.06;;;28.64;30.90
77288;BME280;66345;42.694;23.346;2023-07-09T11:55:51;95806.06;;;28.95;32.73
77288;BME280;66345;42.694;23.346;2023-07-09T11:58:18;95805.03;;;28.91;31.01
77288;BME280;66345;42.694;23.346;2023-07-09T12:00:50;95807.06;;;28.81;31.71
77288;BME280;66345;42.694;23.346;2023-07-09T12:03:26;95810.97;;;28.37;31.14
77288;BME280;66345;42.694;23.346;2023-07-09T12:05:56;95809.06;;;28.37;31.54
77288;BME280;66345;42.694;23.346;2023-07-09T12:08:27;95800.97;;;28.27;31.56
77288;BME280;66345;42.694;23.346;2023-07-09T12:10:53;95800.44;;;28.06;32.66
77288;BME280;66345;42.694;23.346;2023-07-09T12:13:19;95808.34;;;28.51;30.55
77288;BME280;66345;42.694;23.346;2023-07-09T12:15:44;95794.91;;;28.73;29.93
77288;BME280;66345;42.694;23.346;2023-07-09T12:18:13;95802.34;;;28.48;30.88
77288;BME280;66345;42.694;23.346;2023-07-09T12:20:40;95806.41;;;28.51;31.17
77288;BME280;66345;42.694;23.346;2023-07-09T12:23:29;95797.63;;;28.54;30.87
77288;BME280;66345;42.694;23.346;2023-07-09T12:25:54;95785.34;;;28.70;31.43
77288;BME280;66345;42.694;23.346;2023-07-09T12:28:22;95794.81;;;28.78;32.35
77288;BME280;66345;42.694;23.346;2023-07-09T12:30:49;95801.97;;;28.74;30.89
77288;BME280;66345;42.694;23.346;2023-07-09T12:33:19;95784.78;;;28.55;31.48
77288;BME280;66345;42.694;23.346;2023-07-09T12:35:46;95788.09;;;28.70;33.25
77288;BME280;66345;42.694;23.346;2023-07-09T12:38:19;95787.38;;;28.65;31.73
77288;BME280;66345;42.694;23.346;2023-07-09T12:40:48;95780.81;;;28.66;31.63
77288;BME280;66345;42.694;23.346;2023-07-09T12:43:15;95782.41;;;28.67;32.60
77288;BME280;66345;42.694;23.346;2023-07-09T12:45:43;95773.34;;;28.53;32.43
77288;BME280;66345;42.694;23.346;2023-07-09T12:48:10;95782.34;;;28.34;32.38
77288;BME280;66345;42.694;23.346;2023-07-09T12:50:38;95774.16;;;28.34;33.15
77288;BME280;66345;42.694;23.346;2023-07-09T12:53:14;95774.22;;;28.48;31.89
77288;BME280;66345;42.694;23.346;2023-07-09T12:55:42;95764.78;;;28.40;32.40
77288;BME280;66345;42.694;23.346;2023-07-09T12:58:28;95772.50;;;28.33;32.25
77288;BME280;66345;42.694;23.346;2023-07-09T13:00:55;95766.63;;;28.45;32.14
77288;BME280;66345;42.694;23.346;2023-07-09T13:03:39;95777.41;;;28.36;32.95
77288;BME280;66345;42.694;23.346;2023-07-09T13:06:21;95776.81;;;27.97;32.50
77288;BME280;66345;42.694;23.346;2023-07-09T13:08:55;95770.34;;;28.11;33.13
77288;BME280;66345;42.694;23.346;2023-07-09T13:11:21;95768.66;;;28.15;33.70
77288;BME280;66345;42.694;23.346;2023-07-09T13:13:57;95772.78;;;28.13;31.51
77288;BME280;66345;42.694;23.346;2023-07-09T13:16:24;95773.03;;;27.92;32.70
77288;BME280;66345;42.694;23.346;2023-07-09T13:18:49;95771.06;;;27.98;32.49
77288;BME280;66345;42.694;23.346;2023-07-09T13:21:19;95769.13;;;27.99;32.92
77288;BME280;66345;42.694;23.346;2023-07-09T13:23:45;95771.66;;;28.14;33.38
77288;BME280;66345;42.694;23.346;2023-07-09T13:26:12;95783.28;;;28.01;32.34
77288;BME280;66345;42.694;23.346;2023-07-09T13:28:38;95772.97;;;27.98;33.89
77288;BME280;66345;42.694;23.346;2023-07-09T13:33:35;95770.94;;;27.84;34.24